createdAt,value
2018-12-14T00:00:24.979Z,5.06
2018-12-14T00:01:32.433Z,5.06
2018-12-14T00:02:36.549Z,5.06
2018-12-14T00:03:40.742Z,5.08
2018-12-14T00:04:44.961Z,5.09
2018-12-14T00:05:49.022Z,5.08
2018-12-14T00:06:53.052Z,5.08
2018-12-14T00:07:57.083Z,5.08
2018-12-14T00:09:01.279Z,5.06
2018-12-14T00:10:06.414Z,5.05
2018-12-14T00:11:10.603Z,5.04
2018-12-14T00:12:21.060Z,5.03
2018-12-14T00:13:25.136Z,5.02
2018-12-14T00:14:29.158Z,5.01
2018-12-14T00:15:33.303Z,5.00
2018-12-14T00:16:37.528Z,5.00
2018-12-14T00:17:41.561Z,5.02
2018-12-14T00:18:45.879Z,5.02
2018-12-14T00:19:49.963Z,5.03
2018-12-14T00:20:54.098Z,5.04
2018-12-14T00:21:58.165Z,5.05
2018-12-14T00:23:02.301Z,5.05
2018-12-14T00:24:06.442Z,5.07
2018-12-14T00:25:10.750Z,5.06
2018-12-14T00:26:14.790Z,5.07
2018-12-14T00:27:19.705Z,5.06
2018-12-14T00:28:23.747Z,5.05
2018-12-14T00:29:27.791Z,5.04
2018-12-14T00:30:31.815Z,5.05
2018-12-14T00:31:35.892Z,5.04
2018-12-14T00:32:39.945Z,5.01
2018-12-14T00:33:44.055Z,5.02
2018-12-14T00:34:48.190Z,5.02
2018-12-14T00:35:52.311Z,5.00
2018-12-14T00:36:56.366Z,4.99
2018-12-14T00:38:00.470Z,4.98
2018-12-14T00:39:06.639Z,4.97
2018-12-14T00:40:10.762Z,4.97
2018-12-14T00:41:14.803Z,4.97
2018-12-14T00:42:18.854Z,4.98
2018-12-14T00:43:22.923Z,4.98
2018-12-14T00:44:26.970Z,4.99
2018-12-14T00:45:31.009Z,5.00
2018-12-14T00:46:37.767Z,5.03
2018-12-14T00:47:41.880Z,5.06
2018-12-14T00:48:45.983Z,5.08
2018-12-14T00:49:50.002Z,5.09
2018-12-14T00:50:54.051Z,5.10
2018-12-14T00:51:58.086Z,5.10
2018-12-14T00:53:02.182Z,5.10
2018-12-14T00:54:06.203Z,5.11
2018-12-14T00:55:10.470Z,5.13
2018-12-14T00:56:14.490Z,5.12
2018-12-14T00:57:18.536Z,5.13
2018-12-14T00:58:22.602Z,5.14
2018-12-14T00:59:26.734Z,5.14
2018-12-14T01:00:30.859Z,5.15
2018-12-14T01:01:34.910Z,5.14
2018-12-14T01:02:38.995Z,5.17
2018-12-14T01:03:43.102Z,5.17
2018-12-14T01:04:47.270Z,5.17
2018-12-14T01:05:51.432Z,5.19
2018-12-14T01:06:55.472Z,5.18
2018-12-14T01:07:59.529Z,5.18
2018-12-14T01:09:05.678Z,5.18
2018-12-14T01:10:09.804Z,5.18
2018-12-14T01:11:13.944Z,5.20
2018-12-14T01:12:18.067Z,5.19
2018-12-14T01:13:22.118Z,5.19
2018-12-14T01:14:26.200Z,5.18
2018-12-14T01:15:30.804Z,5.19
2018-12-14T01:16:34.909Z,5.18
2018-12-14T01:17:38.946Z,5.19
2018-12-14T01:18:43.034Z,5.16
2018-12-14T01:19:47.063Z,5.14
2018-12-14T01:20:51.100Z,5.12
2018-12-14T01:21:55.243Z,5.11
2018-12-14T01:22:59.268Z,5.11
2018-12-14T01:24:03.517Z,5.10
2018-12-14T01:25:07.974Z,5.08
2018-12-14T01:26:12.010Z,5.09
2018-12-14T01:27:16.074Z,5.08
2018-12-14T01:28:20.112Z,5.09
2018-12-14T01:29:24.171Z,5.08
2018-12-14T01:30:28.251Z,5.08
2018-12-14T01:31:32.458Z,5.07
2018-12-14T01:32:36.617Z,5.06
2018-12-14T01:33:40.647Z,5.08
2018-12-14T01:34:44.798Z,5.09
2018-12-14T01:35:48.835Z,5.09
2018-12-14T01:36:52.937Z,5.08
2018-12-14T01:37:56.987Z,5.08
2018-12-14T01:39:01.077Z,5.08
2018-12-14T01:40:05.799Z,5.09
2018-12-14T01:41:09.852Z,5.08
2018-12-14T01:42:13.983Z,5.06
2018-12-14T01:43:18.150Z,5.07
2018-12-14T01:44:22.270Z,5.05
2018-12-14T01:45:26.357Z,5.05
2018-12-14T01:46:30.526Z,5.05
2018-12-14T01:47:34.679Z,5.03
2018-12-14T01:48:38.799Z,5.03
2018-12-14T01:49:42.860Z,5.05
2018-12-14T01:50:46.891Z,5.03
2018-12-14T01:51:50.983Z,5.02
2018-12-14T01:52:55.000Z,5.00
2018-12-14T01:53:59.035Z,5.01
2018-12-14T01:55:03.404Z,5.01
2018-12-14T01:56:07.468Z,5.00
2018-12-14T01:57:11.524Z,4.99
2018-12-14T01:58:15.564Z,4.99
2018-12-14T01:59:19.640Z,4.99
2018-12-14T02:00:23.727Z,5.00
2018-12-14T02:01:27.774Z,4.99
2018-12-14T02:02:31.922Z,5.00
2018-12-14T02:03:36.267Z,4.99
2018-12-14T02:04:40.315Z,4.99
2018-12-14T02:05:44.401Z,4.97
2018-12-14T02:06:48.471Z,4.97
2018-12-14T02:07:52.639Z,4.95
2018-12-14T02:08:56.654Z,4.97
2018-12-14T02:10:00.832Z,4.97
2018-12-14T02:11:04.989Z,4.97
2018-12-14T02:12:11.474Z,4.97
2018-12-14T02:13:15.002Z,4.96
2018-12-14T02:14:18.971Z,4.96
2018-12-14T02:15:23.017Z,4.96
2018-12-14T02:16:27.344Z,4.96
2018-12-14T02:17:31.419Z,4.96
2018-12-14T02:18:35.689Z,4.97
2018-12-14T02:19:39.724Z,4.97
2018-12-14T02:20:43.822Z,4.97
2018-12-14T02:21:47.888Z,4.96
2018-12-14T02:22:52.574Z,4.97
2018-12-14T02:23:56.655Z,4.97
2018-12-14T02:25:00.716Z,4.95
2018-12-14T02:26:04.965Z,4.94
2018-12-14T02:27:09.228Z,4.92
2018-12-14T02:28:13.239Z,4.92
2018-12-14T02:29:17.307Z,4.91
2018-12-14T02:30:32.830Z,4.90
2018-12-14T02:31:37.008Z,4.90
2018-12-14T02:32:41.082Z,4.89
2018-12-14T02:33:45.184Z,4.88
2018-12-14T02:34:49.238Z,4.86
2018-12-14T02:35:53.267Z,4.86
2018-12-14T02:36:57.322Z,4.86
2018-12-14T02:38:01.675Z,4.86
2018-12-14T02:39:06.322Z,4.84
2018-12-14T02:40:10.364Z,4.84
2018-12-14T02:41:14.487Z,4.84
2018-12-14T02:42:19.384Z,4.84
2018-12-14T02:43:24.378Z,4.83
2018-12-14T02:44:28.436Z,4.84
2018-12-14T02:45:32.730Z,4.82
2018-12-14T02:46:36.838Z,4.82
2018-12-14T02:47:40.979Z,4.81
2018-12-14T02:48:45.082Z,4.80
2018-12-14T02:49:49.118Z,4.80
2018-12-14T02:50:53.193Z,4.79
2018-12-14T02:51:57.236Z,4.79
2018-12-14T02:53:01.276Z,4.78
2018-12-14T02:54:05.365Z,4.77
2018-12-14T02:55:09.434Z,4.76
2018-12-14T02:56:13.494Z,4.77
2018-12-14T02:57:17.773Z,4.77
2018-12-14T02:58:21.851Z,4.76
2018-12-14T02:59:26.099Z,4.77
2018-12-14T03:00:30.222Z,4.78
2018-12-14T03:01:34.301Z,4.78
2018-12-14T03:02:38.409Z,4.77
2018-12-14T03:03:42.433Z,4.77
2018-12-14T03:04:46.512Z,4.77
2018-12-14T03:05:50.651Z,4.77
2018-12-14T03:06:54.911Z,4.77
2018-12-14T03:07:59.018Z,4.76
2018-12-14T03:09:03.680Z,4.77
2018-12-14T03:10:08.331Z,4.78
2018-12-14T03:11:12.484Z,4.79
2018-12-14T03:12:16.547Z,4.79
2018-12-14T03:13:20.741Z,4.80
2018-12-14T03:14:24.764Z,4.82
2018-12-14T03:15:28.843Z,4.83
2018-12-14T03:16:32.846Z,4.83
2018-12-14T03:17:37.171Z,4.84
2018-12-14T03:18:41.171Z,4.84
2018-12-14T03:19:45.436Z,4.84
2018-12-14T03:20:49.539Z,4.84
2018-12-14T03:21:53.671Z,4.85
2018-12-14T03:22:57.683Z,4.86
2018-12-14T03:24:01.757Z,4.86
2018-12-14T03:25:05.922Z,4.86
2018-12-14T03:26:10.017Z,4.88
2018-12-14T03:27:14.047Z,4.88
2018-12-14T03:28:18.133Z,4.88
2018-12-14T03:29:22.230Z,4.88
2018-12-14T03:30:26.334Z,4.88
2018-12-14T03:31:30.504Z,4.88
2018-12-14T03:32:34.863Z,4.87
2018-12-14T03:33:39.047Z,4.88
2018-12-14T03:34:43.229Z,4.88
2018-12-14T03:35:47.320Z,4.86
2018-12-14T03:36:51.299Z,4.86
2018-12-14T03:37:55.382Z,4.86
2018-12-14T03:38:59.483Z,4.86
2018-12-14T03:40:03.894Z,4.86
2018-12-14T03:41:08.114Z,4.84
2018-12-14T03:42:12.220Z,4.86
2018-12-14T03:43:16.255Z,4.85
2018-12-14T03:44:20.395Z,4.86
2018-12-14T03:45:24.591Z,4.86
2018-12-14T03:46:28.877Z,4.87
2018-12-14T03:47:32.915Z,4.86
2018-12-14T03:48:36.975Z,4.86
2018-12-14T03:49:41.084Z,4.86
2018-12-14T03:50:45.178Z,4.86
2018-12-14T03:51:49.150Z,4.85
2018-12-14T03:52:53.270Z,4.87
2018-12-14T03:53:57.449Z,4.87
2018-12-14T03:55:01.467Z,4.86
2018-12-14T03:56:05.598Z,4.87
2018-12-14T03:57:09.615Z,4.87
2018-12-14T03:58:13.677Z,4.88
2018-12-14T03:59:17.747Z,4.87
2018-12-14T04:00:21.916Z,4.87
2018-12-14T04:01:25.917Z,4.89
2018-12-14T04:02:29.946Z,4.89
2018-12-14T04:03:33.986Z,4.90
2018-12-14T04:04:37.987Z,4.91
2018-12-14T04:05:41.995Z,4.92
2018-12-14T04:06:46.015Z,4.94
2018-12-14T04:07:50.121Z,4.94
2018-12-14T04:08:54.241Z,4.94
2018-12-14T04:09:58.299Z,4.94
2018-12-14T04:11:02.373Z,4.93
2018-12-14T04:12:06.418Z,4.95
2018-12-14T04:13:10.471Z,4.94
2018-12-14T04:14:14.533Z,4.95
2018-12-14T04:15:18.594Z,4.95
2018-12-14T04:16:22.638Z,4.96
2018-12-14T04:17:26.632Z,4.96
2018-12-14T04:18:30.634Z,4.98
2018-12-14T04:19:34.605Z,4.98
2018-12-14T04:20:38.575Z,4.99
2018-12-14T04:21:42.576Z,5.00
2018-12-14T04:22:46.567Z,4.99
2018-12-14T04:23:50.747Z,5.00
2018-12-14T04:24:54.926Z,5.00
2018-12-14T04:25:59.068Z,5.00
2018-12-14T04:27:03.172Z,5.00
2018-12-14T04:28:07.303Z,5.00
2018-12-14T04:29:11.287Z,5.01
2018-12-14T04:30:15.330Z,5.01
2018-12-14T04:31:19.292Z,5.01
2018-12-14T04:32:23.299Z,5.00
2018-12-14T04:33:27.510Z,4.99
2018-12-14T04:34:31.517Z,4.98
2018-12-14T04:35:35.487Z,4.98
2018-12-14T04:36:39.503Z,4.98
2018-12-14T04:37:43.648Z,4.98
2018-12-14T04:38:47.731Z,4.99
2018-12-14T04:39:51.699Z,4.97
2018-12-14T04:40:55.760Z,4.98
2018-12-14T04:42:00.029Z,4.98
2018-12-14T04:43:04.131Z,5.00
2018-12-14T04:44:08.195Z,5.00
2018-12-14T04:45:12.390Z,4.99
2018-12-14T04:46:16.371Z,4.98
2018-12-14T04:47:20.583Z,4.98
2018-12-14T04:48:24.637Z,4.98
2018-12-14T04:49:28.849Z,4.99
2018-12-14T04:50:32.919Z,4.99
2018-12-14T04:51:36.949Z,4.98
2018-12-14T04:52:40.943Z,4.99
2018-12-14T04:53:45.070Z,5.01
2018-12-14T04:54:49.159Z,5.02
2018-12-14T04:55:53.148Z,5.01
2018-12-14T04:56:57.289Z,5.03
2018-12-14T04:58:01.334Z,5.04
2018-12-14T04:59:05.353Z,5.04
2018-12-14T05:00:09.587Z,5.04
2018-12-14T05:01:13.533Z,5.04
2018-12-14T05:02:17.768Z,5.04
2018-12-14T05:03:21.771Z,5.05
2018-12-14T05:04:25.844Z,5.04
2018-12-14T05:05:29.864Z,5.05
2018-12-14T05:06:33.853Z,5.05
2018-12-14T05:07:38.008Z,5.04
2018-12-14T05:08:41.998Z,5.03
2018-12-14T05:09:46.076Z,5.01
2018-12-14T05:10:50.190Z,5.01
2018-12-14T05:11:54.572Z,5.00
2018-12-14T05:12:58.645Z,5.01
2018-12-14T05:14:02.800Z,5.01
2018-12-14T05:15:07.636Z,5.01
2018-12-14T05:16:12.225Z,5.04
2018-12-14T05:17:16.411Z,5.06
2018-12-14T05:18:20.534Z,5.07
2018-12-14T05:19:24.687Z,5.08
2018-12-14T05:20:28.769Z,5.09
2018-12-14T05:21:32.823Z,5.10
2018-12-14T05:22:36.872Z,5.12
2018-12-14T05:23:40.966Z,5.12
2018-12-14T05:24:45.035Z,5.14
2018-12-14T05:25:49.119Z,5.14
2018-12-14T05:26:54.156Z,5.16
2018-12-14T05:27:58.179Z,5.17
2018-12-14T05:29:02.291Z,5.17
2018-12-14T05:30:07.235Z,5.17
2018-12-14T05:31:11.311Z,5.17
2018-12-14T05:32:15.534Z,5.18
2018-12-14T05:33:19.622Z,5.18
2018-12-14T05:34:23.724Z,5.19
2018-12-14T05:35:27.897Z,5.18
2018-12-14T05:36:32.051Z,5.19
2018-12-14T05:37:36.102Z,5.20
2018-12-14T05:38:40.118Z,5.19
2018-12-14T05:39:44.278Z,5.20
2018-12-14T05:40:48.340Z,5.20
2018-12-14T05:41:59.210Z,5.19
2018-12-14T05:43:03.309Z,5.18
2018-12-14T05:44:07.456Z,5.17
2018-12-14T05:45:11.623Z,5.17
2018-12-14T05:46:15.838Z,5.16
2018-12-14T05:47:19.905Z,5.14
2018-12-14T05:48:23.991Z,5.14
2018-12-14T05:49:28.030Z,5.13
2018-12-14T05:50:32.413Z,5.11
2018-12-14T05:51:36.503Z,5.10
2018-12-14T05:52:40.545Z,5.10
2018-12-14T05:53:44.613Z,5.09
2018-12-14T05:54:48.744Z,5.08
2018-12-14T05:55:52.910Z,5.06
2018-12-14T05:56:57.158Z,5.06
2018-12-14T05:58:01.262Z,5.06
2018-12-14T05:59:05.337Z,5.05
2018-12-14T06:00:11.343Z,5.05
2018-12-14T06:01:15.378Z,5.05
2018-12-14T06:02:19.737Z,5.04
2018-12-14T06:03:24.544Z,5.04
2018-12-14T06:04:28.568Z,5.04
2018-12-14T06:05:32.735Z,5.05
2018-12-14T06:06:37.027Z,5.07
2018-12-14T06:07:41.248Z,5.06
2018-12-14T06:08:45.361Z,5.07
2018-12-14T06:09:49.502Z,5.07
2018-12-14T06:10:53.679Z,5.07
2018-12-14T06:11:58.034Z,5.08
2018-12-14T06:13:02.147Z,5.08
2018-12-14T06:14:06.306Z,5.09
2018-12-14T06:15:10.485Z,5.11
2018-12-14T06:16:15.408Z,5.13
2018-12-14T06:17:19.574Z,5.13
2018-12-14T06:18:23.595Z,5.14
2018-12-14T06:19:27.727Z,5.12
2018-12-14T06:20:31.735Z,5.13
2018-12-14T06:21:35.806Z,5.13
2018-12-14T06:22:39.958Z,5.13
2018-12-14T06:23:43.968Z,5.13
2018-12-14T06:24:48.095Z,5.13
2018-12-14T06:25:52.126Z,5.13
2018-12-14T06:26:56.278Z,5.13
2018-12-14T06:28:00.318Z,5.13
2018-12-14T06:29:04.509Z,5.13
2018-12-14T06:30:08.606Z,5.12
2018-12-14T06:31:12.635Z,5.11
2018-12-14T06:32:16.624Z,5.12
2018-12-14T06:33:20.771Z,5.10
2018-12-14T06:34:25.027Z,5.10
2018-12-14T06:35:29.079Z,5.10
2018-12-14T06:36:33.066Z,5.12
2018-12-14T06:37:37.071Z,5.11
2018-12-14T06:38:41.194Z,5.13
2018-12-14T06:39:45.175Z,5.14
2018-12-14T06:40:49.175Z,5.15
2018-12-14T06:41:53.468Z,5.14
2018-12-14T06:42:57.622Z,5.15
2018-12-14T06:44:01.771Z,5.14
2018-12-14T06:45:06.656Z,5.14
2018-12-14T06:46:10.679Z,5.15
2018-12-14T06:47:14.712Z,5.15
2018-12-14T06:48:18.725Z,5.16
2018-12-14T06:49:22.780Z,5.18
2018-12-14T06:50:28.434Z,5.18
2018-12-14T06:51:32.551Z,5.18
2018-12-14T06:52:36.711Z,5.18
2018-12-14T06:53:40.678Z,5.20
2018-12-14T06:54:44.728Z,5.21
2018-12-14T06:55:48.868Z,5.20
2018-12-14T06:56:52.926Z,5.21
2018-12-14T06:57:56.957Z,5.22
2018-12-14T06:59:01.023Z,5.23
2018-12-14T07:00:06.842Z,5.23
2018-12-14T07:01:11.457Z,5.22
2018-12-14T07:02:15.463Z,5.21
2018-12-14T07:03:19.550Z,5.21
2018-12-14T07:04:23.574Z,5.21
2018-12-14T07:05:27.562Z,5.21
2018-12-14T07:06:31.650Z,5.23
2018-12-14T07:07:35.832Z,5.21
2018-12-14T07:08:39.785Z,5.21
2018-12-14T07:09:43.927Z,5.22
2018-12-14T07:10:48.171Z,5.21
2018-12-14T07:11:52.137Z,5.20
2018-12-14T07:12:56.364Z,5.18
2018-12-14T07:14:00.412Z,5.19
2018-12-14T07:15:05.570Z,5.19
2018-12-14T07:16:09.735Z,5.18
2018-12-14T07:17:13.949Z,5.18
2018-12-14T07:18:17.997Z,5.18
2018-12-14T07:19:22.218Z,5.18
2018-12-14T07:20:26.258Z,5.18
2018-12-14T07:21:30.421Z,5.18
2018-12-14T07:22:34.460Z,5.19
2018-12-14T07:23:38.593Z,5.21
2018-12-14T07:24:42.686Z,5.21
2018-12-14T07:25:46.808Z,5.23
2018-12-14T07:26:51.172Z,5.25
2018-12-14T07:27:55.305Z,5.27
2018-12-14T07:28:59.494Z,5.29
2018-12-14T07:30:03.921Z,5.31
2018-12-14T07:31:08.136Z,5.33
2018-12-14T07:32:12.201Z,5.33
2018-12-14T07:33:16.344Z,5.35
2018-12-14T07:34:20.461Z,5.36
2018-12-14T07:35:24.676Z,5.36
2018-12-14T07:36:28.848Z,5.38
2018-12-14T07:37:32.876Z,5.39
2018-12-14T07:38:36.978Z,5.37
2018-12-14T07:39:41.025Z,5.37
2018-12-14T07:40:45.118Z,5.36
2018-12-14T07:41:49.136Z,5.35
2018-12-14T07:42:53.180Z,5.36
2018-12-14T07:43:57.392Z,5.36
2018-12-14T07:45:01.515Z,5.36
2018-12-14T07:46:05.591Z,5.36
2018-12-14T07:47:11.770Z,5.36
2018-12-14T07:48:15.787Z,5.37
2018-12-14T07:49:19.868Z,5.38
2018-12-14T07:50:24.094Z,5.38
2018-12-14T07:51:28.296Z,5.39
2018-12-14T07:52:32.418Z,5.38
2018-12-14T07:53:36.503Z,5.39
2018-12-14T07:54:40.530Z,5.38
2018-12-14T07:55:44.669Z,5.38
2018-12-14T07:56:49.144Z,5.36
2018-12-14T07:57:53.203Z,5.36
2018-12-14T07:58:57.547Z,5.34
2018-12-14T08:00:01.632Z,5.35
2018-12-14T08:01:05.820Z,5.36
2018-12-14T08:02:10.011Z,5.38
2018-12-14T08:03:14.134Z,5.39
2018-12-14T08:04:18.253Z,5.39
2018-12-14T08:05:22.446Z,5.39
2018-12-14T08:06:26.750Z,5.38
2018-12-14T08:07:30.874Z,5.39
2018-12-14T08:08:34.938Z,5.38
2018-12-14T08:09:38.967Z,5.39
2018-12-14T08:10:42.998Z,5.41
2018-12-14T08:11:47.163Z,5.41
2018-12-14T08:12:51.512Z,5.42
2018-12-14T08:13:55.639Z,5.45
2018-12-14T08:14:59.674Z,5.45
2018-12-14T08:16:03.836Z,5.46
2018-12-14T08:17:07.947Z,5.47
2018-12-14T08:18:11.955Z,5.48
2018-12-14T08:19:16.047Z,5.47
2018-12-14T08:20:20.221Z,5.48
2018-12-14T08:21:24.463Z,5.49
2018-12-14T08:22:28.514Z,5.48
2018-12-14T08:23:32.640Z,5.47
2018-12-14T08:24:36.725Z,5.46
2018-12-14T08:25:40.797Z,5.45
2018-12-14T08:26:44.930Z,5.44
2018-12-14T08:27:48.959Z,5.45
2018-12-14T08:28:53.193Z,5.45
2018-12-14T08:29:57.231Z,5.44
2018-12-14T08:31:01.326Z,5.42
2018-12-14T08:32:05.458Z,5.40
2018-12-14T08:33:09.429Z,5.38
2018-12-14T08:34:13.408Z,5.36
2018-12-14T08:35:17.511Z,5.35
2018-12-14T08:36:21.543Z,5.35
2018-12-14T08:37:25.570Z,5.35
2018-12-14T08:38:29.694Z,5.34
2018-12-14T08:39:33.694Z,5.34
2018-12-14T08:40:37.764Z,5.33
2018-12-14T08:41:41.830Z,5.31
2018-12-14T08:42:45.901Z,5.31
2018-12-14T08:43:49.946Z,5.33
2018-12-14T08:44:53.986Z,5.33
2018-12-14T08:45:57.963Z,5.32
2018-12-14T08:47:02.110Z,5.31
2018-12-14T08:48:06.484Z,5.30
2018-12-14T08:49:10.606Z,5.31
2018-12-14T08:50:14.674Z,5.31
2018-12-14T08:51:18.664Z,5.30
2018-12-14T08:52:22.727Z,5.28
2018-12-14T08:53:26.995Z,5.26
2018-12-14T08:54:30.982Z,5.25
2018-12-14T08:55:34.982Z,5.25
2018-12-14T08:56:39.138Z,5.25
2018-12-14T08:57:43.138Z,5.24
2018-12-14T08:58:47.165Z,5.24
2018-12-14T08:59:51.262Z,5.26
2018-12-14T09:00:55.352Z,5.27
2018-12-14T09:01:59.391Z,5.28
2018-12-14T09:03:03.343Z,5.27
2018-12-14T09:04:07.570Z,5.29
2018-12-14T09:05:11.746Z,5.29
2018-12-14T09:06:15.786Z,5.28
2018-12-14T09:07:24.565Z,5.28
2018-12-14T09:08:26.004Z,5.27
2018-12-14T09:09:30.030Z,5.26
2018-12-14T09:10:34.022Z,5.28
2018-12-14T09:11:38.061Z,5.29
2018-12-14T09:12:42.066Z,5.30
2018-12-14T09:13:48.033Z,5.31
2018-12-14T09:14:52.184Z,5.33
2018-12-14T09:15:56.280Z,5.36
2018-12-14T09:17:00.422Z,5.37
2018-12-14T09:18:05.299Z,5.37
2018-12-14T09:19:09.302Z,5.38
2018-12-14T09:20:13.362Z,5.37
2018-12-14T09:21:17.402Z,5.38
2018-12-14T09:22:21.432Z,5.38
2018-12-14T09:23:25.475Z,5.38
2018-12-14T09:24:29.515Z,5.38
2018-12-14T09:25:33.622Z,5.39
2018-12-14T09:26:37.711Z,5.40
2018-12-14T09:27:41.766Z,5.39
2018-12-14T09:28:45.879Z,5.40
2018-12-14T09:29:49.990Z,5.39
2018-12-14T09:30:54.025Z,5.38
2018-12-14T09:31:58.141Z,5.37
2018-12-14T09:33:02.312Z,5.38
2018-12-14T09:34:06.429Z,5.37
2018-12-14T09:35:10.667Z,5.38
2018-12-14T09:36:14.765Z,5.38
2018-12-14T09:37:18.828Z,5.37
2018-12-14T09:38:22.845Z,5.36
2018-12-14T09:39:26.869Z,5.35
2018-12-14T09:40:30.909Z,5.35
2018-12-14T09:41:35.036Z,5.36
2018-12-14T09:42:39.136Z,5.36
2018-12-14T09:43:46.208Z,5.38
2018-12-14T09:44:50.411Z,5.40
2018-12-14T09:45:54.526Z,5.40
2018-12-14T09:46:58.562Z,5.41
2018-12-14T09:48:02.621Z,5.42
2018-12-14T09:49:06.759Z,5.42
2018-12-14T09:50:10.918Z,5.44
2018-12-14T09:51:14.952Z,5.46
2018-12-14T09:52:19.083Z,5.47
2018-12-14T09:53:23.123Z,5.48
2018-12-14T09:54:27.451Z,5.49
2018-12-14T09:55:31.571Z,5.50
2018-12-14T09:56:35.622Z,5.52
2018-12-14T09:57:39.770Z,5.52
2018-12-14T09:58:43.805Z,5.53
2018-12-14T09:59:47.834Z,5.54
2018-12-14T10:00:52.243Z,5.56
2018-12-14T10:01:56.311Z,5.55
2018-12-14T10:03:00.368Z,5.56
2018-12-14T10:04:04.470Z,5.56
2018-12-14T10:05:09.535Z,5.57
2018-12-14T10:06:15.782Z,5.57
2018-12-14T10:07:19.666Z,5.58
2018-12-14T10:08:23.762Z,5.56
2018-12-14T10:09:27.798Z,5.58
2018-12-14T10:10:31.951Z,5.58
2018-12-14T10:11:36.049Z,5.59
2018-12-14T10:12:40.099Z,5.62
2018-12-14T10:13:44.221Z,5.62
2018-12-14T10:14:48.263Z,5.63
2018-12-14T10:15:53.691Z,5.63
2018-12-14T10:16:57.710Z,5.63
2018-12-14T10:18:01.748Z,5.64
2018-12-14T10:19:05.949Z,5.67
2018-12-14T10:20:10.696Z,5.67
2018-12-14T10:21:14.719Z,5.70
2018-12-14T10:22:18.766Z,5.70
2018-12-14T10:23:22.815Z,5.71
2018-12-14T10:24:26.846Z,5.72
2018-12-14T10:25:30.961Z,5.71
2018-12-14T10:26:35.028Z,5.72
2018-12-14T10:27:39.127Z,5.71
2018-12-14T10:28:43.230Z,5.72
2018-12-14T10:29:47.299Z,5.71
2018-12-14T10:30:51.351Z,5.71
2018-12-14T10:31:55.516Z,5.69
2018-12-14T10:32:59.605Z,5.69
2018-12-14T10:34:03.706Z,5.70
2018-12-14T10:35:09.153Z,5.70
2018-12-14T10:36:13.255Z,5.71
2018-12-14T10:37:17.371Z,5.71
2018-12-14T10:38:21.473Z,5.71
2018-12-14T10:39:25.510Z,5.71
2018-12-14T10:40:29.644Z,5.72
2018-12-14T10:41:33.767Z,5.71
2018-12-14T10:42:37.884Z,5.72
2018-12-14T10:43:41.962Z,5.72
2018-12-14T10:44:46.073Z,5.74
2018-12-14T10:45:50.459Z,5.75
2018-12-14T10:46:54.670Z,5.76
2018-12-14T10:47:58.933Z,5.77
2018-12-14T10:49:03.143Z,5.77
2018-12-14T10:50:08.094Z,5.77
2018-12-14T10:51:12.367Z,5.78
2018-12-14T10:52:16.499Z,5.79
2018-12-14T10:53:20.540Z,5.80
2018-12-14T10:54:25.062Z,5.79
2018-12-14T10:55:29.257Z,5.78
2018-12-14T10:56:33.282Z,5.77
2018-12-14T10:57:37.542Z,5.77
2018-12-14T10:58:41.583Z,5.76
2018-12-14T10:59:45.603Z,5.76
2018-12-14T11:00:55.230Z,5.74
2018-12-14T11:01:59.356Z,5.74
2018-12-14T11:03:03.527Z,5.74
2018-12-14T11:04:07.707Z,5.73
2018-12-14T11:05:11.773Z,5.75
2018-12-14T11:06:15.887Z,5.76
2018-12-14T11:07:19.922Z,5.79
2018-12-14T11:08:24.050Z,5.78
2018-12-14T11:09:28.057Z,5.77
2018-12-14T11:10:32.209Z,5.77
2018-12-14T11:11:36.334Z,5.76
2018-12-14T11:12:40.390Z,5.75
2018-12-14T11:13:44.518Z,5.74
2018-12-14T11:14:48.684Z,5.74
2018-12-14T11:15:53.002Z,5.73
2018-12-14T11:16:57.129Z,5.75
2018-12-14T11:18:01.227Z,5.75
2018-12-14T11:19:05.437Z,5.76
2018-12-14T11:20:10.336Z,5.76
2018-12-14T11:21:14.425Z,5.78
2018-12-14T11:22:18.596Z,5.77
2018-12-14T11:23:22.761Z,5.79
2018-12-14T11:24:26.886Z,5.79
2018-12-14T11:25:31.198Z,5.79
2018-12-14T11:26:35.334Z,5.80
2018-12-14T11:27:39.443Z,5.81
2018-12-14T11:28:43.610Z,5.84
2018-12-14T11:29:47.705Z,5.84
2018-12-14T11:30:51.858Z,5.86
2018-12-14T11:31:55.943Z,5.85
2018-12-14T11:33:00.076Z,5.86
2018-12-14T11:34:04.305Z,5.88
2018-12-14T11:35:09.130Z,5.88
2018-12-14T11:36:13.353Z,5.89
2018-12-14T11:37:17.459Z,5.89
2018-12-14T11:38:21.471Z,5.89
2018-12-14T11:39:25.505Z,5.89
2018-12-14T11:40:29.697Z,5.89
2018-12-14T11:41:33.893Z,5.88
2018-12-14T11:42:37.999Z,5.90
2018-12-14T11:43:42.142Z,5.93
2018-12-14T11:44:46.253Z,5.95
2018-12-14T11:45:50.311Z,5.97
2018-12-14T11:46:54.460Z,5.98
2018-12-14T11:47:59.898Z,5.99
2018-12-14T11:49:04.111Z,5.99
2018-12-14T11:50:10.496Z,5.98
2018-12-14T11:51:18.268Z,6.00
2018-12-14T11:52:22.308Z,6.01
2018-12-14T11:53:26.438Z,6.02
2018-12-14T11:54:31.961Z,6.02
2018-12-14T11:55:36.066Z,6.04
2018-12-14T11:56:40.272Z,6.04
2018-12-14T11:57:44.314Z,6.04
2018-12-14T11:58:48.515Z,6.04
2018-12-14T11:59:52.535Z,6.05
2018-12-14T12:00:56.583Z,6.03
2018-12-14T12:02:00.667Z,6.03
2018-12-14T12:03:04.715Z,6.03
2018-12-14T12:04:08.768Z,6.03
2018-12-14T12:05:13.057Z,6.01
2018-12-14T12:06:17.099Z,6.01
2018-12-14T12:07:21.334Z,6.01
2018-12-14T12:08:25.394Z,6.01
2018-12-14T12:09:29.446Z,6.00
2018-12-14T12:10:33.499Z,5.99
2018-12-14T12:11:37.571Z,5.99
2018-12-14T12:12:41.811Z,5.98
2018-12-14T12:13:45.896Z,5.99
2018-12-14T12:14:49.909Z,5.99
2018-12-14T12:15:54.116Z,5.98
2018-12-14T12:16:58.217Z,5.96
2018-12-14T12:18:02.474Z,5.95
2018-12-14T12:19:06.563Z,5.94
2018-12-14T12:20:10.834Z,5.94
2018-12-14T12:21:15.031Z,5.96
2018-12-14T12:22:19.153Z,5.97
2018-12-14T12:23:23.403Z,5.99
2018-12-14T12:24:27.506Z,6.02
2018-12-14T12:25:31.583Z,6.05
2018-12-14T12:26:35.640Z,6.06
2018-12-14T12:27:39.836Z,6.09
2018-12-14T12:28:44.082Z,6.09
2018-12-14T12:29:48.144Z,6.12
2018-12-14T12:30:52.173Z,6.13
2018-12-14T12:31:56.259Z,6.14
2018-12-14T12:33:00.496Z,6.14
2018-12-14T12:34:04.717Z,6.14
2018-12-14T12:35:09.107Z,6.14
2018-12-14T12:36:13.198Z,6.14
2018-12-14T12:37:17.319Z,6.14
2018-12-14T12:38:22.456Z,6.13
2018-12-14T12:39:26.659Z,6.14
2018-12-14T12:40:30.731Z,6.14
2018-12-14T12:41:34.907Z,6.15
2018-12-14T12:42:39.075Z,6.14
2018-12-14T12:43:43.241Z,6.14
2018-12-14T12:44:47.358Z,6.14
2018-12-14T12:45:51.378Z,6.15
2018-12-14T12:46:55.564Z,6.16
2018-12-14T12:47:59.766Z,6.17
2018-12-14T12:49:05.624Z,6.18
2018-12-14T12:50:10.055Z,6.19
2018-12-14T12:51:14.174Z,6.20
2018-12-14T12:52:18.324Z,6.20
2018-12-14T12:53:22.412Z,6.21
2018-12-14T12:54:26.571Z,6.21
2018-12-14T12:55:30.803Z,6.23
2018-12-14T12:56:35.246Z,6.23
2018-12-14T12:57:39.870Z,6.23
2018-12-14T12:58:43.978Z,6.20
2018-12-14T12:59:48.073Z,6.19
2018-12-14T13:00:52.199Z,6.17
2018-12-14T13:01:56.370Z,6.16
2018-12-14T13:03:00.587Z,6.14
2018-12-14T13:04:05.821Z,6.12
2018-12-14T13:05:10.042Z,6.09
2018-12-14T13:06:14.361Z,6.06
2018-12-14T13:07:18.439Z,6.04
2018-12-14T13:08:22.474Z,6.01
2018-12-14T13:09:26.587Z,5.99
2018-12-14T13:10:30.619Z,5.98
2018-12-14T13:11:34.741Z,5.98
2018-12-14T13:12:38.780Z,5.98
2018-12-14T13:13:42.879Z,5.99
2018-12-14T13:14:46.981Z,6.00
2018-12-14T13:15:51.206Z,5.99
2018-12-14T13:16:55.415Z,6.00
2018-12-14T13:17:59.448Z,6.00
2018-12-14T13:19:03.474Z,6.00
2018-12-14T13:20:07.703Z,6.01
2018-12-14T13:21:11.861Z,6.01
2018-12-14T13:22:15.919Z,6.02
2018-12-14T13:23:20.019Z,6.02
2018-12-14T13:24:24.084Z,6.03
2018-12-14T13:25:28.407Z,6.04
2018-12-14T13:26:32.652Z,6.06
2018-12-14T13:27:36.739Z,6.09
2018-12-14T13:28:40.872Z,6.10
2018-12-14T13:29:45.859Z,6.12
2018-12-14T13:30:50.383Z,6.15
2018-12-14T13:31:54.441Z,6.17
2018-12-14T13:32:59.126Z,6.19
2018-12-14T13:34:03.413Z,6.21
2018-12-14T13:35:07.768Z,6.22
2018-12-14T13:36:12.076Z,6.21
2018-12-14T13:37:16.199Z,6.22
2018-12-14T13:38:20.276Z,6.22
2018-12-14T13:39:24.387Z,6.24
2018-12-14T13:40:28.471Z,6.26
2018-12-14T13:41:32.804Z,6.28
2018-12-14T13:42:36.992Z,6.29
2018-12-14T13:43:41.195Z,6.31
2018-12-14T13:44:46.646Z,6.29
2018-12-14T13:45:51.213Z,6.29
2018-12-14T13:46:55.327Z,6.31
2018-12-14T13:47:59.493Z,6.29
2018-12-14T13:49:03.636Z,6.29
2018-12-14T13:50:07.910Z,6.28
2018-12-14T13:51:12.006Z,6.31
2018-12-14T13:52:16.586Z,6.30
2018-12-14T13:53:20.711Z,6.30
2018-12-14T13:54:25.298Z,6.32
2018-12-14T13:55:29.427Z,6.31
2018-12-14T13:56:34.349Z,6.31
2018-12-14T13:57:38.924Z,6.31
2018-12-14T13:58:42.981Z,6.31
2018-12-14T13:59:47.022Z,6.32
2018-12-14T14:00:51.154Z,6.32
2018-12-14T14:01:55.298Z,6.31
2018-12-14T14:02:59.468Z,6.32
2018-12-14T14:04:03.642Z,6.32
2018-12-14T14:05:07.804Z,6.32
2018-12-14T14:06:11.941Z,6.32
2018-12-14T14:07:16.047Z,6.34
2018-12-14T14:08:23.194Z,6.33
2018-12-14T14:09:27.442Z,6.31
2018-12-14T14:10:31.520Z,6.29
2018-12-14T14:11:35.554Z,6.27
2018-12-14T14:12:39.679Z,6.24
2018-12-14T14:13:43.759Z,6.22
2018-12-14T14:14:52.997Z,6.19